sensor_id;sensor_type;location;lat;lon;timestamp;temperature;humidity
24252;DHT22;12380;51.118;4.176;2022-11-20T00:01:47;5.40;99.90
24252;DHT22;12380;51.118;4.176;2022-11-20T00:04:12;5.30;99.90
24252;DHT22;12380;51.118;4.176;2022-11-20T00:06:38;5.30;99.90
24252;DHT22;12380;51.118;4.176;2022-11-20T00:09:04;5.40;99.90
24252;DHT22;12380;51.118;4.176;2022-11-20T00:11:31;5.40;99.90
24252;DHT22;12380;51.118;4.176;2022-11-20T00:13:58;5.40;99.90
24252;DHT22;12380;51.118;4.176;2022-11-20T00:16:24;5.40;99.90
24252;DHT22;12380;51.118;4.176;2022-11-20T00:18:51;5.40;99.90
24252;DHT22;12380;51.118;4.176;2022-11-20T00:21:18;5.40;99.90
24252;DHT22;12380;51.118;4.176;2022-11-20T00:23:44;5.40;99.90
24252;DHT22;12380;51.118;4.176;2022-11-20T00:26:11;5.40;99.90
24252;DHT22;12380;51.118;4.176;2022-11-20T00:28:37;5.20;99.90
24252;DHT22;12380;51.118;4.176;2022-11-20T00:31:04;5.30;99.90
24252;DHT22;12380;51.118;4.176;2022-11-20T00:33:30;5.30;99.90
24252;DHT22;12380;51.118;4.176;2022-11-20T00:36:03;5.20;99.90
24252;DHT22;12380;51.118;4.176;2022-11-20T00:38:29;5.30;99.90
24252;DHT22;12380;51.118;4.176;2022-11-20T00:40:58;5.50;99.90
24252;DHT22;12380;51.118;4.176;2022-11-20T00:43:24;5.40;99.90
24252;DHT22;12380;51.118;4.176;2022-11-20T00:46:02;5.30;99.90
24252;DHT22;12380;51.118;4.176;2022-11-20T00:48:28;5.20;99.90
24252;DHT22;12380;51.118;4.176;2022-11-20T00:50:55;5.20;99.90
24252;DHT22;12380;51.118;4.176;2022-11-20T00:53:23;5.30;99.90
24252;DHT22;12380;51.118;4.176;2022-11-20T00:58:22;5.20;99.90
24252;DHT22;12380;51.118;4.176;2022-11-20T01:00:48;5.40;99.90
24252;DHT22;12380;51.118;4.176;2022-11-20T01:03:16;5.30;99.90
24252;DHT22;12380;51.118;4.176;2022-11-20T01:05:42;5.20;99.90
24252;DHT22;12380;51.118;4.176;2022-11-20T01:08:08;5.30;99.90
24252;DHT22;12380;51.118;4.176;2022-11-20T01:10:33;5.30;99.90
24252;DHT22;12380;51.118;4.176;2022-11-20T01:13:01;5.30;99.90
24252;DHT22;12380;51.118;4.176;2022-11-20T01:15:48;5.30;99.90
24252;DHT22;12380;51.118;4.176;2022-11-20T01:18:14;5.30;99.90
24252;DHT22;12380;51.118;4.176;2022-11-20T01:20:42;5.30;99.90
24252;DHT22;12380;51.118;4.176;2022-11-20T01:23:07;5.20;99.90
24252;DHT22;12380;51.118;4.176;2022-11-20T01:25:33;5.20;99.90
24252;DHT22;12380;51.118;4.176;2022-11-20T01:27:59;5.20;99.90
24252;DHT22;12380;51.118;4.176;2022-11-20T01:30:24;5.20;99.90
24252;DHT22;12380;51.118;4.176;2022-11-20T01:32:50;5.20;99.90
24252;DHT22;12380;51.118;4.176;2022-11-20T01:35:16;5.20;99.90
24252;DHT22;12380;51.118;4.176;2022-11-20T01:37:42;5.10;99.90
24252;DHT22;12380;51.118;4.176;2022-11-20T01:40:08;5.10;99.90
24252;DHT22;12380;51.118;4.176;2022-11-20T01:42:33;4.90;99.90
24252;DHT22;12380;51.118;4.176;2022-11-20T01:48:02;4.70;99.90
24252;DHT22;12380;51.118;4.176;2022-11-20T01:50:30;4.40;99.90
24252;DHT22;12380;51.118;4.176;2022-11-20T01:53:10;4.30;99.90
24252;DHT22;12380;51.118;4.176;2022-11-20T01:55:40;4.30;99.90
24252;DHT22;12380;51.118;4.176;2022-11-20T01:58:07;4.20;99.90
24252;DHT22;12380;51.118;4.176;2022-11-20T02:00:34;4.10;99.90
24252;DHT22;12380;51.118;4.176;2022-11-20T02:03:10;4.00;99.90
24252;DHT22;12380;51.118;4.176;2022-11-20T02:08:06;4.10;99.90
24252;DHT22;12380;51.118;4.176;2022-11-20T02:10:37;4.20;99.90
24252;DHT22;12380;51.118;4.176;2022-11-20T02:13:03;4.20;99.90
24252;DHT22;12380;51.118;4.176;2022-11-20T02:15:47;4.10;99.90
24252;DHT22;12380;51.118;4.176;2022-11-20T02:18:13;4.10;99.90
24252;DHT22;12380;51.118;4.176;2022-11-20T02:20:40;4.00;99.90
24252;DHT22;12380;51.118;4.176;2022-11-20T02:23:12;4.00;99.90
24252;DHT22;12380;51.118;4.176;2022-11-20T02:25:38;4.10;99.90
24252;DHT22;12380;51.118;4.176;2022-11-20T02:28:07;4.10;99.90
24252;DHT22;12380;51.118;4.176;2022-11-20T02:30:32;4.20;99.90
24252;DHT22;12380;51.118;4.176;2022-11-20T02:32:58;4.00;99.90
24252;DHT22;12380;51.118;4.176;2022-11-20T02:37:53;4.20;99.90
24252;DHT22;12380;51.118;4.176;2022-11-20T02:40:19;4.20;99.90
24252;DHT22;12380;51.118;4.176;2022-11-20T02:42:45;4.00;99.90
24252;DHT22;12380;51.118;4.176;2022-11-20T02:45:13;3.80;99.90
24252;DHT22;12380;51.118;4.176;2022-11-20T02:47:39;3.90;99.90
24252;DHT22;12380;51.118;4.176;2022-11-20T02:50:05;4.00;99.90
24252;DHT22;12380;51.118;4.176;2022-11-20T02:52:30;4.10;99.90
24252;DHT22;12380;51.118;4.176;2022-11-20T02:54:56;4.20;99.90
24252;DHT22;12380;51.118;4.176;2022-11-20T02:57:22;4.20;99.90
24252;DHT22;12380;51.118;4.176;2022-11-20T02:59:48;4.10;99.90
24252;DHT22;12380;51.118;4.176;2022-11-20T03:02:15;4.10;99.90
24252;DHT22;12380;51.118;4.176;2022-11-20T03:04:41;4.00;99.90
24252;DHT22;12380;51.118;4.176;2022-11-20T03:07:07;3.90;99.90
24252;DHT22;12380;51.118;4.176;2022-11-20T03:09:33;3.90;99.90
24252;DHT22;12380;51.118;4.176;2022-11-20T03:11:58;3.90;99.90
24252;DHT22;12380;51.118;4.176;2022-11-20T03:14:24;4.00;99.90
24252;DHT22;12380;51.118;4.176;2022-11-20T03:16:50;4.00;99.90
24252;DHT22;12380;51.118;4.176;2022-11-20T03:19:16;3.90;99.90
24252;DHT22;12380;51.118;4.176;2022-11-20T03:21:42;4.10;99.90
24252;DHT22;12380;51.118;4.176;2022-11-20T03:24:07;4.10;99.90
24252;DHT22;12380;51.118;4.176;2022-11-20T03:26:33;4.10;99.90
24252;DHT22;12380;51.118;4.176;2022-11-20T03:29:00;4.00;99.90
24252;DHT22;12380;51.118;4.176;2022-11-20T03:31:27;4.00;99.90
24252;DHT22;12380;51.118;4.176;2022-11-20T03:33:54;4.00;99.90
24252;DHT22;12380;51.118;4.176;2022-11-20T03:36:20;4.00;99.90
24252;DHT22;12380;51.118;4.176;2022-11-20T03:38:46;4.00;99.90
24252;DHT22;12380;51.118;4.176;2022-11-20T03:41:22;4.00;99.90
24252;DHT22;12380;51.118;4.176;2022-11-20T03:43:51;4.10;99.90
24252;DHT22;12380;51.118;4.176;2022-11-20T03:46:17;4.00;99.90
24252;DHT22;12380;51.118;4.176;2022-11-20T03:48:46;3.90;99.90
24252;DHT22;12380;51.118;4.176;2022-11-20T03:51:15;4.00;99.90
24252;DHT22;12380;51.118;4.176;2022-11-20T03:53:41;4.20;99.90
24252;DHT22;12380;51.118;4.176;2022-11-20T03:56:08;4.10;99.90
24252;DHT22;12380;51.118;4.176;2022-11-20T03:58:34;4.10;99.90
24252;DHT22;12380;51.118;4.176;2022-11-20T04:01:21;4.20;99.90
24252;DHT22;12380;51.118;4.176;2022-11-20T04:03:51;4.30;99.90
24252;DHT22;12380;51.118;4.176;2022-11-20T04:06:18;4.30;99.90
24252;DHT22;12380;51.118;4.176;2022-11-20T04:08:44;4.30;99.90
24252;DHT22;12380;51.118;4.176;2022-11-20T04:11:14;4.30;99.90
24252;DHT22;12380;51.118;4.176;2022-11-20T04:13:40;4.30;99.90
24252;DHT22;12380;51.118;4.176;2022-11-20T04:16:06;4.30;99.90
24252;DHT22;12380;51.118;4.176;2022-11-20T04:18:32;4.30;99.90
24252;DHT22;12380;51.118;4.176;2022-11-20T04:20:58;4.10;99.90
24252;DHT22;12380;51.118;4.176;2022-11-20T04:23:24;4.10;99.90
24252;DHT22;12380;51.118;4.176;2022-11-20T04:25:52;4.10;99.90
24252;DHT22;12380;51.118;4.176;2022-11-20T04:28:21;4.10;99.90
24252;DHT22;12380;51.118;4.176;2022-11-20T04:30:46;4.10;99.90
24252;DHT22;12380;51.118;4.176;2022-11-20T04:33:12;4.00;99.90
24252;DHT22;12380;51.118;4.176;2022-11-20T04:35:38;4.10;99.90
24252;DHT22;12380;51.118;4.176;2022-11-20T04:38:03;4.10;99.90
24252;DHT22;12380;51.118;4.176;2022-11-20T04:40:30;4.00;99.90
24252;DHT22;12380;51.118;4.176;2022-11-20T04:42:56;4.10;99.90
24252;DHT22;12380;51.118;4.176;2022-11-20T04:45:22;4.10;99.90
24252;DHT22;12380;51.118;4.176;2022-11-20T04:47:50;4.20;99.90
24252;DHT22;12380;51.118;4.176;2022-11-20T04:50:15;4.20;99.90
24252;DHT22;12380;51.118;4.176;2022-11-20T04:52:42;4.10;99.90
24252;DHT22;12380;51.118;4.176;2022-11-20T04:55:07;3.90;99.90
24252;DHT22;12380;51.118;4.176;2022-11-20T04:57:35;4.00;99.90
24252;DHT22;12380;51.118;4.176;2022-11-20T05:00:01;3.90;99.90
24252;DHT22;12380;51.118;4.176;2022-11-20T05:02:27;4.10;99.90
24252;DHT22;12380;51.118;4.176;2022-11-20T05:04:55;4.10;99.90
24252;DHT22;12380;51.118;4.176;2022-11-20T05:07:20;4.00;99.90
24252;DHT22;12380;51.118;4.176;2022-11-20T05:09:48;3.80;99.90
24252;DHT22;12380;51.118;4.176;2022-11-20T05:12:14;3.90;99.90
24252;DHT22;12380;51.118;4.176;2022-11-20T05:14:39;4.10;99.90
24252;DHT22;12380;51.118;4.176;2022-11-20T05:17:05;4.10;99.90
24252;DHT22;12380;51.118;4.176;2022-11-20T05:19:31;4.20;99.90
24252;DHT22;12380;51.118;4.176;2022-11-20T05:21:57;4.50;99.90
24252;DHT22;12380;51.118;4.176;2022-11-20T05:24:23;4.60;99.90
24252;DHT22;12380;51.118;4.176;2022-11-20T05:26:49;4.40;99.90
24252;DHT22;12380;51.118;4.176;2022-11-20T05:29:14;4.50;99.90
24252;DHT22;12380;51.118;4.176;2022-11-20T05:31:40;4.30;99.90
24252;DHT22;12380;51.118;4.176;2022-11-20T05:34:06;4.10;99.90
24252;DHT22;12380;51.118;4.176;2022-11-20T05:36:35;4.20;99.90
24252;DHT22;12380;51.118;4.176;2022-11-20T05:39:00;4.10;99.90
24252;DHT22;12380;51.118;4.176;2022-11-20T05:41:29;4.20;99.90
24252;DHT22;12380;51.118;4.176;2022-11-20T05:43:57;4.10;99.90
24252;DHT22;12380;51.118;4.176;2022-11-20T05:46:23;4.20;99.90
24252;DHT22;12380;51.118;4.176;2022-11-20T05:48:49;4.20;99.90
24252;DHT22;12380;51.118;4.176;2022-11-20T05:51:16;4.20;99.90
24252;DHT22;12380;51.118;4.176;2022-11-20T05:53:42;4.00;99.90
24252;DHT22;12380;51.118;4.176;2022-11-20T05:56:12;3.90;99.90
24252;DHT22;12380;51.118;4.176;2022-11-20T05:58:40;3.80;99.90
24252;DHT22;12380;51.118;4.176;2022-11-20T06:01:11;3.80;99.90
24252;DHT22;12380;51.118;4.176;2022-11-20T06:03:38;3.80;99.90
24252;DHT22;12380;51.118;4.176;2022-11-20T06:06:05;3.70;99.90
24252;DHT22;12380;51.118;4.176;2022-11-20T06:08:32;3.70;99.90
24252;DHT22;12380;51.118;4.176;2022-11-20T06:10:58;3.80;99.90
24252;DHT22;12380;51.118;4.176;2022-11-20T06:13:26;3.70;99.90
24252;DHT22;12380;51.118;4.176;2022-11-20T06:15:52;3.80;99.90
24252;DHT22;12380;51.118;4.176;2022-11-20T06:18:19;3.80;99.90
24252;DHT22;12380;51.118;4.176;2022-11-20T06:20:47;3.90;99.90
24252;DHT22;12380;51.118;4.176;2022-11-20T06:23:13;4.00;99.90
24252;DHT22;12380;51.118;4.176;2022-11-20T06:25:41;4.00;99.90
24252;DHT22;12380;51.118;4.176;2022-11-20T06:28:10;4.10;99.90
24252;DHT22;12380;51.118;4.176;2022-11-20T06:30:35;4.00;99.90
24252;DHT22;12380;51.118;4.176;2022-11-20T06:33:01;3.90;99.90
24252;DHT22;12380;51.118;4.176;2022-11-20T06:35:29;4.00;99.90
24252;DHT22;12380;51.118;4.176;2022-11-20T06:37:55;3.90;99.90
24252;DHT22;12380;51.118;4.176;2022-11-20T06:40:21;3.80;99.90
24252;DHT22;12380;51.118;4.176;2022-11-20T06:42:46;3.80;99.90
24252;DHT22;12380;51.118;4.176;2022-11-20T06:45:12;3.90;99.90
24252;DHT22;12380;51.118;4.176;2022-11-20T06:47:38;3.90;99.90
24252;DHT22;12380;51.118;4.176;2022-11-20T06:50:04;3.90;99.90
24252;DHT22;12380;51.118;4.176;2022-11-20T06:52:29;3.90;99.90
24252;DHT22;12380;51.118;4.176;2022-11-20T06:54:55;3.90;99.90
24252;DHT22;12380;51.118;4.176;2022-11-20T06:57:20;4.00;99.90
24252;DHT22;12380;51.118;4.176;2022-11-20T06:59:46;4.10;99.90
24252;DHT22;12380;51.118;4.176;2022-11-20T07:02:12;4.20;99.90
24252;DHT22;12380;51.118;4.176;2022-11-20T07:04:40;4.30;99.90
24252;DHT22;12380;51.118;4.176;2022-11-20T07:07:06;4.30;99.90
24252;DHT22;12380;51.118;4.176;2022-11-20T07:09:31;4.30;99.90
24252;DHT22;12380;51.118;4.176;2022-11-20T07:11:57;4.40;99.90
24252;DHT22;12380;51.118;4.176;2022-11-20T07:14:26;4.50;99.90
24252;DHT22;12380;51.118;4.176;2022-11-20T07:16:52;4.60;99.90
24252;DHT22;12380;51.118;4.176;2022-11-20T07:19:17;4.50;99.90
24252;DHT22;12380;51.118;4.176;2022-11-20T07:21:43;4.40;99.90
24252;DHT22;12380;51.118;4.176;2022-11-20T07:24:08;4.50;99.90
24252;DHT22;12380;51.118;4.176;2022-11-20T07:26:34;4.50;99.90
24252;DHT22;12380;51.118;4.176;2022-11-20T07:29:00;4.40;99.90
24252;DHT22;12380;51.118;4.176;2022-11-20T07:31:26;4.40;99.90
24252;DHT22;12380;51.118;4.176;2022-11-20T07:33:52;4.50;99.90
24252;DHT22;12380;51.118;4.176;2022-11-20T07:36:18;4.60;99.90
24252;DHT22;12380;51.118;4.176;2022-11-20T07:38:43;4.60;99.90
24252;DHT22;12380;51.118;4.176;2022-11-20T07:41:11;4.50;99.90
24252;DHT22;12380;51.118;4.176;2022-11-20T07:43:37;4.50;99.90
24252;DHT22;12380;51.118;4.176;2022-11-20T07:46:05;4.60;99.90
24252;DHT22;12380;51.118;4.176;2022-11-20T07:48:31;4.70;99.90
24252;DHT22;12380;51.118;4.176;2022-11-20T07:50:56;4.90;99.90
24252;DHT22;12380;51.118;4.176;2022-11-20T07:53:24;4.70;99.90
24252;DHT22;12380;51.118;4.176;2022-11-20T07:55:50;4.70;99.90
24252;DHT22;12380;51.118;4.176;2022-11-20T07:58:18;4.80;99.90
24252;DHT22;12380;51.118;4.176;2022-11-20T08:00:44;4.90;99.90
24252;DHT22;12380;51.118;4.176;2022-11-20T08:03:09;5.10;99.90
24252;DHT22;12380;51.118;4.176;2022-11-20T08:05:35;5.00;99.90
24252;DHT22;12380;51.118;4.176;2022-11-20T08:08:01;5.10;99.90
24252;DHT22;12380;51.118;4.176;2022-11-20T08:10:26;5.10;99.90
24252;DHT22;12380;51.118;4.176;2022-11-20T08:12:52;5.20;99.90
24252;DHT22;12380;51.118;4.176;2022-11-20T08:15:37;5.30;99.90
24252;DHT22;12380;51.118;4.176;2022-11-20T08:18:04;5.10;99.90
24252;DHT22;12380;51.118;4.176;2022-11-20T08:20:32;5.30;99.90
24252;DHT22;12380;51.118;4.176;2022-11-20T08:22:59;5.00;99.90
24252;DHT22;12380;51.118;4.176;2022-11-20T08:25:25;5.00;99.90
24252;DHT22;12380;51.118;4.176;2022-11-20T08:27:50;4.90;99.90
24252;DHT22;12380;51.118;4.176;2022-11-20T08:30:16;4.90;99.90
24252;DHT22;12380;51.118;4.176;2022-11-20T08:32:42;4.90;99.90
24252;DHT22;12380;51.118;4.176;2022-11-20T08:35:10;5.00;99.90
24252;DHT22;12380;51.118;4.176;2022-11-20T08:37:36;5.00;99.90
24252;DHT22;12380;51.118;4.176;2022-11-20T08:40:08;4.90;99.90
24252;DHT22;12380;51.118;4.176;2022-11-20T08:42:34;5.00;99.90
24252;DHT22;12380;51.118;4.176;2022-11-20T08:45:00;5.00;99.90
24252;DHT22;12380;51.118;4.176;2022-11-20T08:47:25;5.10;99.90
24252;DHT22;12380;51.118;4.176;2022-11-20T08:49:51;5.10;99.90
24252;DHT22;12380;51.118;4.176;2022-11-20T08:52:18;5.10;99.90
24252;DHT22;12380;51.118;4.176;2022-11-20T08:54:47;5.10;99.90
24252;DHT22;12380;51.118;4.176;2022-11-20T08:57:13;5.00;99.90
24252;DHT22;12380;51.118;4.176;2022-11-20T08:59:38;5.00;99.90
24252;DHT22;12380;51.118;4.176;2022-11-20T09:02:04;5.10;99.90
24252;DHT22;12380;51.118;4.176;2022-11-20T09:04:30;5.10;99.90
24252;DHT22;12380;51.118;4.176;2022-11-20T09:06:56;5.20;99.90
24252;DHT22;12380;51.118;4.176;2022-11-20T09:09:24;5.30;99.90
24252;DHT22;12380;51.118;4.176;2022-11-20T09:11:52;5.40;99.90
24252;DHT22;12380;51.118;4.176;2022-11-20T09:14:18;5.20;99.90
24252;DHT22;12380;51.118;4.176;2022-11-20T09:16:44;5.30;99.90
24252;DHT22;12380;51.118;4.176;2022-11-20T09:19:13;5.20;99.90
24252;DHT22;12380;51.118;4.176;2022-11-20T09:21:39;5.20;99.90
24252;DHT22;12380;51.118;4.176;2022-11-20T09:24:04;5.30;99.90
24252;DHT22;12380;51.118;4.176;2022-11-20T09:26:30;5.20;99.90
24252;DHT22;12380;51.118;4.176;2022-11-20T09:28:56;5.20;99.90
24252;DHT22;12380;51.118;4.176;2022-11-20T09:31:25;5.40;99.90
24252;DHT22;12380;51.118;4.176;2022-11-20T09:33:51;5.30;99.90
24252;DHT22;12380;51.118;4.176;2022-11-20T09:36:17;5.40;99.90
24252;DHT22;12380;51.118;4.176;2022-11-20T09:38:44;5.50;99.90
24252;DHT22;12380;51.118;4.176;2022-11-20T09:41:19;5.40;99.90
24252;DHT22;12380;51.118;4.176;2022-11-20T09:43:54;5.50;99.90
24252;DHT22;12380;51.118;4.176;2022-11-20T09:51:39;5.50;99.90
24252;DHT22;12380;51.118;4.176;2022-11-20T09:56:33;5.70;99.90
24252;DHT22;12380;51.118;4.176;2022-11-20T09:58:59;5.80;99.90
24252;DHT22;12380;51.118;4.176;2022-11-20T10:01:29;5.90;99.90
24252;DHT22;12380;51.118;4.176;2022-11-20T10:06:57;6.00;99.90
24252;DHT22;12380;51.118;4.176;2022-11-20T10:17:10;6.30;99.90
24252;DHT22;12380;51.118;4.176;2022-11-20T10:30:00;6.70;99.90
24252;DHT22;12380;51.118;4.176;2022-11-20T10:32:30;6.60;99.90
24252;DHT22;12380;51.118;4.176;2022-11-20T10:35:05;6.70;99.90
24252;DHT22;12380;51.118;4.176;2022-11-20T10:37:34;6.80;99.90
24252;DHT22;12380;51.118;4.176;2022-11-20T10:45:02;6.80;99.90
24252;DHT22;12380;51.118;4.176;2022-11-20T10:47:35;6.80;99.90
24252;DHT22;12380;51.118;4.176;2022-11-20T10:50:02;6.90;99.90
24252;DHT22;12380;51.118;4.176;2022-11-20T11:00:23;7.10;99.90
24252;DHT22;12380;51.118;4.176;2022-11-20T11:02:50;7.10;99.90
24252;DHT22;12380;51.118;4.176;2022-11-20T11:07:53;7.30;99.90
24252;DHT22;12380;51.118;4.176;2022-11-20T11:13:06;7.50;99.90
24252;DHT22;12380;51.118;4.176;2022-11-20T11:15:39;7.60;99.90
24252;DHT22;12380;51.118;4.176;2022-11-20T11:18:11;7.60;99.90
24252;DHT22;12380;51.118;4.176;2022-11-20T11:20:36;7.70;99.90
24252;DHT22;12380;51.118;4.176;2022-11-20T11:23:02;7.80;99.90
24252;DHT22;12380;51.118;4.176;2022-11-20T11:25:32;8.00;99.90
24252;DHT22;12380;51.118;4.176;2022-11-20T11:28:04;8.10;99.90
24252;DHT22;12380;51.118;4.176;2022-11-20T11:30:30;8.30;99.90
24252;DHT22;12380;51.118;4.176;2022-11-20T11:33:06;8.20;99.90
24252;DHT22;12380;51.118;4.176;2022-11-20T11:35:32;8.30;99.90
24252;DHT22;12380;51.118;4.176;2022-11-20T11:38:05;8.30;99.90
24252;DHT22;12380;51.118;4.176;2022-11-20T11:40:33;8.40;99.90
24252;DHT22;12380;51.118;4.176;2022-11-20T11:43:01;8.40;99.90
24252;DHT22;12380;51.118;4.176;2022-11-20T11:45:29;8.60;99.90
24252;DHT22;12380;51.118;4.176;2022-11-20T11:47:58;8.70;99.90
24252;DHT22;12380;51.118;4.176;2022-11-20T11:50:26;8.70;99.90
24252;DHT22;12380;51.118;4.176;2022-11-20T11:53:05;8.60;99.90
24252;DHT22;12380;51.118;4.176;2022-11-20T12:00:47;8.50;99.90
24252;DHT22;12380;51.118;4.176;2022-11-20T12:03:16;8.50;99.90
24252;DHT22;12380;51.118;4.176;2022-11-20T12:05:44;8.40;99.90
24252;DHT22;12380;51.118;4.176;2022-11-20T12:10:56;8.30;99.90
24252;DHT22;12380;51.118;4.176;2022-11-20T12:16:10;8.30;99.90
24252;DHT22;12380;51.118;4.176;2022-11-20T12:18:36;8.20;99.90
24252;DHT22;12380;51.118;4.176;2022-11-20T12:29:00;8.10;99.90
24252;DHT22;12380;51.118;4.176;2022-11-20T12:31:45;8.10;99.90
24252;DHT22;12380;51.118;4.176;2022-11-20T12:34:37;8.10;99.90
24252;DHT22;12380;51.118;4.176;2022-11-20T12:39:31;7.90;99.90
24252;DHT22;12380;51.118;4.176;2022-11-20T12:55:11;7.70;99.90
24252;DHT22;12380;51.118;4.176;2022-11-20T13:00:20;7.70;99.90
24252;DHT22;12380;51.118;4.176;2022-11-20T13:05:27;7.70;99.90
24252;DHT22;12380;51.118;4.176;2022-11-20T13:07:56;7.60;99.90
24252;DHT22;12380;51.118;4.176;2022-11-20T13:13:28;7.60;99.90
24252;DHT22;12380;51.118;4.176;2022-11-20T13:18:15;7.70;99.90
24252;DHT22;12380;51.118;4.176;2022-11-20T13:20:43;7.70;99.90
24252;DHT22;12380;51.118;4.176;2022-11-20T13:23:09;7.70;99.90
24252;DHT22;12380;51.118;4.176;2022-11-20T13:25:38;7.60;99.90
24252;DHT22;12380;51.118;4.176;2022-11-20T13:28:26;7.70;99.90
24252;DHT22;12380;51.118;4.176;2022-11-20T13:30:53;7.70;99.90
24252;DHT22;12380;51.118;4.176;2022-11-20T13:33:23;7.70;99.90
24252;DHT22;12380;51.118;4.176;2022-11-20T13:35:55;7.60;99.90
24252;DHT22;12380;51.118;4.176;2022-11-20T13:38:20;7.60;99.90
24252;DHT22;12380;51.118;4.176;2022-11-20T13:40:59;7.60;99.90
24252;DHT22;12380;51.118;4.176;2022-11-20T13:43:46;7.60;99.90
24252;DHT22;12380;51.118;4.176;2022-11-20T13:46:12;7.60;99.90
24252;DHT22;12380;51.118;4.176;2022-11-20T13:48:39;7.70;99.90
24252;DHT22;12380;51.118;4.176;2022-11-20T13:51:11;7.70;99.90
24252;DHT22;12380;51.118;4.176;2022-11-20T13:56:24;7.70;99.90
24252;DHT22;12380;51.118;4.176;2022-11-20T13:59:05;7.80;99.90
24252;DHT22;12380;51.118;4.176;2022-11-20T14:01:35;7.90;99.90
24252;DHT22;12380;51.118;4.176;2022-11-20T14:04:06;7.90;99.90
24252;DHT22;12380;51.118;4.176;2022-11-20T14:06:39;8.00;99.90
24252;DHT22;12380;51.118;4.176;2022-11-20T14:09:10;8.00;99.90
24252;DHT22;12380;51.118;4.176;2022-11-20T14:11:37;7.90;99.90
24252;DHT22;12380;51.118;4.176;2022-11-20T14:14:13;7.90;99.90
24252;DHT22;12380;51.118;4.176;2022-11-20T14:16:42;7.90;99.90
24252;DHT22;12380;51.118;4.176;2022-11-20T14:21:51;7.80;99.90
24252;DHT22;12380;51.118;4.176;2022-11-20T14:24:21;7.80;99.90
24252;DHT22;12380;51.118;4.176;2022-11-20T14:26:47;7.90;99.90
24252;DHT22;12380;51.118;4.176;2022-11-20T14:31:39;7.90;99.90
24252;DHT22;12380;51.118;4.176;2022-11-20T14:34:05;7.90;99.90
24252;DHT22;12380;51.118;4.176;2022-11-20T14:36:30;8.00;99.90
24252;DHT22;12380;51.118;4.176;2022-11-20T14:38:56;8.00;99.90
24252;DHT22;12380;51.118;4.176;2022-11-20T14:41:22;8.00;99.90
24252;DHT22;12380;51.118;4.176;2022-11-20T14:43:55;8.00;99.90
24252;DHT22;12380;51.118;4.176;2022-11-20T14:46:22;8.00;99.90
24252;DHT22;12380;51.118;4.176;2022-11-20T14:48:55;8.00;99.90
24252;DHT22;12380;51.118;4.176;2022-11-20T14:51:31;8.00;99.90
24252;DHT22;12380;51.118;4.176;2022-11-20T14:54:10;8.10;99.90
24252;DHT22;12380;51.118;4.176;2022-11-20T14:56:36;8.10;99.90
24252;DHT22;12380;51.118;4.176;2022-11-20T14:59:02;8.20;99.90
24252;DHT22;12380;51.118;4.176;2022-11-20T15:01:28;8.20;99.90
24252;DHT22;12380;51.118;4.176;2022-11-20T15:04:09;8.20;99.90
24252;DHT22;12380;51.118;4.176;2022-11-20T15:06:37;8.30;99.90
24252;DHT22;12380;51.118;4.176;2022-11-20T15:09:12;8.30;99.90
24252;DHT22;12380;51.118;4.176;2022-11-20T15:11:38;8.30;99.90
24252;DHT22;12380;51.118;4.176;2022-11-20T15:14:04;8.30;99.90
24252;DHT22;12380;51.118;4.176;2022-11-20T15:16:31;8.50;99.90
24252;DHT22;12380;51.118;4.176;2022-11-20T15:18:56;8.50;99.90
24252;DHT22;12380;51.118;4.176;2022-11-20T15:21:22;8.50;99.90
24252;DHT22;12380;51.118;4.176;2022-11-20T15:23:48;8.50;99.90
24252;DHT22;12380;51.118;4.176;2022-11-20T15:26:26;8.50;99.90
24252;DHT22;12380;51.118;4.176;2022-11-20T15:28:52;8.50;99.90
24252;DHT22;12380;51.118;4.176;2022-11-20T15:31:22;8.60;99.90
24252;DHT22;12380;51.118;4.176;2022-11-20T15:33:48;8.50;99.90
24252;DHT22;12380;51.118;4.176;2022-11-20T15:36:16;8.60;99.90
24252;DHT22;12380;51.118;4.176;2022-11-20T15:38:42;8.50;99.90
24252;DHT22;12380;51.118;4.176;2022-11-20T15:41:07;8.50;99.90
24252;DHT22;12380;51.118;4.176;2022-11-20T15:43:33;8.50;99.90
24252;DHT22;12380;51.118;4.176;2022-11-20T15:46:00;8.50;99.90
24252;DHT22;12380;51.118;4.176;2022-11-20T15:48:27;8.50;99.90
24252;DHT22;12380;51.118;4.176;2022-11-20T15:53:39;8.40;99.90
24252;DHT22;12380;51.118;4.176;2022-11-20T15:56:05;8.50;99.90
24252;DHT22;12380;51.118;4.176;2022-11-20T15:58:31;8.40;99.90
24252;DHT22;12380;51.118;4.176;2022-11-20T16:00:57;8.50;99.90
24252;DHT22;12380;51.118;4.176;2022-11-20T16:03:22;8.40;99.90
24252;DHT22;12380;51.118;4.176;2022-11-20T16:05:48;8.40;99.90
24252;DHT22;12380;51.118;4.176;2022-11-20T16:08:14;8.40;99.90
24252;DHT22;12380;51.118;4.176;2022-11-20T16:10:40;8.60;99.90
24252;DHT22;12380;51.118;4.176;2022-11-20T16:13:16;8.50;99.90
24252;DHT22;12380;51.118;4.176;2022-11-20T16:16:04;8.50;99.90
24252;DHT22;12380;51.118;4.176;2022-11-20T16:18:30;8.50;99.90
24252;DHT22;12380;51.118;4.176;2022-11-20T16:20:56;8.60;99.90
24252;DHT22;12380;51.118;4.176;2022-11-20T16:23:24;8.60;99.90
24252;DHT22;12380;51.118;4.176;2022-11-20T16:25:50;8.60;99.90
24252;DHT22;12380;51.118;4.176;2022-11-20T16:28:17;8.60;99.90
24252;DHT22;12380;51.118;4.176;2022-11-20T16:30:43;8.60;99.90
24252;DHT22;12380;51.118;4.176;2022-11-20T16:33:10;8.50;99.90
24252;DHT22;12380;51.118;4.176;2022-11-20T16:35:37;8.50;99.90
24252;DHT22;12380;51.118;4.176;2022-11-20T16:38:02;8.40;99.90
24252;DHT22;12380;51.118;4.176;2022-11-20T16:40:28;8.40;99.90
24252;DHT22;12380;51.118;4.176;2022-11-20T16:42:54;8.40;99.90
24252;DHT22;12380;51.118;4.176;2022-11-20T16:45:20;8.40;99.90
24252;DHT22;12380;51.118;4.176;2022-11-20T16:47:46;8.20;99.90
24252;DHT22;12380;51.118;4.176;2022-11-20T16:50:12;8.40;99.90
24252;DHT22;12380;51.118;4.176;2022-11-20T16:52:38;8.30;99.90
24252;DHT22;12380;51.118;4.176;2022-11-20T16:55:06;8.20;99.90
24252;DHT22;12380;51.118;4.176;2022-11-20T16:57:32;8.20;99.90
24252;DHT22;12380;51.118;4.176;2022-11-20T16:59:58;8.20;99.90
24252;DHT22;12380;51.118;4.176;2022-11-20T17:02:24;8.20;99.90
24252;DHT22;12380;51.118;4.176;2022-11-20T17:04:53;8.10;99.90
24252;DHT22;12380;51.118;4.176;2022-11-20T17:07:20;8.10;99.90
24252;DHT22;12380;51.118;4.176;2022-11-20T17:09:45;8.00;99.90
24252;DHT22;12380;51.118;4.176;2022-11-20T17:12:11;8.10;99.90
24252;DHT22;12380;51.118;4.176;2022-11-20T17:14:36;8.10;99.90
24252;DHT22;12380;51.118;4.176;2022-11-20T17:17:02;8.10;99.90
24252;DHT22;12380;51.118;4.176;2022-11-20T17:19:28;8.10;99.90
24252;DHT22;12380;51.118;4.176;2022-11-20T17:21:54;8.10;99.90
24252;DHT22;12380;51.118;4.176;2022-11-20T17:24:20;8.00;99.90
24252;DHT22;12380;51.118;4.176;2022-11-20T17:26:47;7.90;99.90
24252;DHT22;12380;51.118;4.176;2022-11-20T17:29:14;7.80;99.90
24252;DHT22;12380;51.118;4.176;2022-11-20T17:31:40;7.70;99.90
24252;DHT22;12380;51.118;4.176;2022-11-20T17:34:10;7.80;99.90
24252;DHT22;12380;51.118;4.176;2022-11-20T17:36:36;7.80;99.90
24252;DHT22;12380;51.118;4.176;2022-11-20T17:39:03;7.80;99.90
24252;DHT22;12380;51.118;4.176;2022-11-20T17:41:29;7.80;99.90